Time;durP1;ratioP1;P1;durP2;ratioP2;P2;SDS_P1;SDS_P2;PMS_P1;PMS_P2;Temp;Humidity;BMP_temperature;BMP_pressure;BME280_temperature;BME280_humidity;BME280_pressure;Samples;Min_cycle;Max_cycle;Signal;HPM_P1;HPM_P2
2020/12/17 00:02:12;;;;;;;14.18;12.57;;;11.90;78.70;;;;;;5000836;28;20049;-49
2020/12/17 00:04:58;;;;;;;17.20;12.70;;;11.90;78.90;;;;;;5000616;28;20042;-49
2020/12/17 00:07:23;;;;;;;14.73;12.25;;;11.90;78.60;;;;;;4999837;28;20064;-53
2020/12/17 00:09:49;;;;;;;16.77;12.45;;;11.90;78.60;;;;;;5001075;28;20046;-51
2020/12/17 00:12:36;;;;;;;16.17;13.32;;;11.80;78.80;;;;;;5001712;28;20054;-56
2020/12/17 00:15:24;;;;;;;15.95;12.90;;;11.80;78.60;;;;;;5000606;28;20557;-52
2020/12/17 00:17:51;;;;;;;15.68;12.13;;;11.80;78.60;;;;;;5000901;28;20757;-52
2020/12/17 00:20:37;;;;;;;15.73;12.35;;;11.90;78.80;;;;;;4999631;28;20108;-50
2020/12/17 00:23:23;;;;;;;17.33;12.90;;;11.90;78.60;;;;;;4999104;28;20644;-53
2020/12/17 00:26:12;;;;;;;15.35;12.20;;;11.80;79.10;;;;;;4999186;28;20041;-57
2020/12/17 00:28:57;;;;;;;16.88;13.00;;;11.80;78.90;;;;;;5011883;28;20056;-55
2020/12/17 00:31:43;;;;;;;17.43;12.20;;;11.80;79.90;;;;;;5001538;28;20568;-57
2020/12/17 00:34:29;;;;;;;15.52;12.85;;;11.90;78.50;;;;;;5001162;28;20056;-54
2020/12/17 00:36:54;;;;;;;15.70;13.13;;;11.90;78.70;;;;;;5002240;28;20038;-55
2020/12/17 00:39:40;;;;;;;15.57;12.68;;;11.90;78.60;;;;;;5001307;28;20054;-55
2020/12/17 00:42:06;;;;;;;16.83;12.85;;;11.90;79.00;;;;;;5002138;28;20041;-54
2020/12/17 00:44:51;;;;;;;16.60;12.50;;;11.90;78.80;;;;;;5001418;28;20053;-57
2020/12/17 00:47:37;;;;;;;15.93;13.00;;;11.80;79.30;;;;;;5001882;28;20088;-57
2020/12/17 00:50:07;;;;;;;16.77;12.82;;;11.70;79.00;;;;;;5014970;28;20070;-54
2020/12/17 00:52:36;;;;;;;16.65;13.02;;;11.80;78.90;;;;;;5001938;28;20371;-56
2020/12/17 00:55:05;;;;;;;19.17;13.40;;;11.70;78.90;;;;;;5015022;28;20458;-51
2020/12/17 00:57:51;;;;;;;15.23;12.23;;;11.70;79.10;;;;;;4999600;28;20304;-57
2020/12/17 01:00:17;;;;;;;14.20;11.50;;;11.70;79.10;;;;;;4999484;28;20470;-46
2020/12/17 01:02:42;;;;;;;14.63;11.88;;;11.70;79.30;;;;;;5000725;28;20065;-53
2020/12/17 01:05:08;;;;;;;15.60;12.27;;;11.70;78.90;;;;;;5000261;28;20038;-53
2020/12/17 01:07:34;;;;;;;14.23;11.25;;;11.80;79.10;;;;;;4999536;28;20038;-54
2020/12/17 01:10:19;;;;;;;15.25;12.18;;;11.70;79.20;;;;;;4999478;28;20044;-54
2020/12/17 01:13:05;;;;;;;14.85;12.13;;;11.70;78.80;;;;;;4988658;28;20106;-51
2020/12/17 01:15:51;;;;;;;14.30;11.40;;;11.70;79.00;;;;;;5003663;28;20050;-53
2020/12/17 01:18:36;;;;;;;15.77;11.82;;;11.70;79.10;;;;;;5000475;28;20122;-57
2020/12/17 01:21:04;;;;;;;14.90;11.82;;;11.70;79.50;;;;;;5003137;28;20505;-53
2020/12/17 01:23:30;;;;;;;16.90;13.50;;;11.70;79.40;;;;;;5002465;28;20045;-58
2020/12/17 01:26:15;;;;;;;15.77;11.63;;;11.70;79.10;;;;;;5003497;28;20049;-53
2020/12/17 01:28:41;;;;;;;19.27;11.93;;;11.70;79.50;;;;;;5002710;28;20565;-56
2020/12/17 01:31:08;;;;;;;16.40;12.37;;;11.70;79.60;;;;;;5002665;28;20061;-56
2020/12/17 01:33:34;;;;;;;15.20;12.40;;;11.70;79.70;;;;;;5003297;28;20048;-56
2020/12/17 01:36:01;;;;;;;15.75;12.65;;;11.70;80.20;;;;;;5002394;28;20033;-48
2020/12/17 01:38:47;;;;;;;14.45;11.93;;;11.70;80.30;;;;;;5003045;28;20048;-51
2020/12/17 01:41:32;;;;;;;13.27;11.27;;;11.70;80.10;;;;;;5003729;28;20470;-53
2020/12/17 01:44:01;;;;;;;14.70;11.77;;;11.60;80.60;;;;;;5004507;28;20036;-54
2020/12/17 01:46:27;;;;;;;15.35;12.27;;;11.70;80.50;;;;;;5004405;28;20053;-49
2020/12/17 01:48:53;;;;;;;16.60;11.90;;;11.70;80.80;;;;;;5003787;28;20048;-48
2020/12/17 01:51:19;;;;;;;17.30;12.67;;;11.70;80.80;;;;;;5003435;28;20041;-48
2020/12/17 01:53:45;;;;;;;16.30;12.77;;;11.60;81.10;;;;;;5000545;28;22548;-49
2020/12/17 01:56:23;;;;;;;15.97;12.73;;;11.70;81.10;;;;;;5001245;28;20046;-49
2020/12/17 01:59:11;;;;;;;18.33;12.27;;;11.60;81.20;;;;;;5001384;28;20033;-53
2020/12/17 02:01:37;;;;;;;15.57;12.13;;;11.60;82.10;;;;;;4997968;28;20057;-54
2020/12/17 02:04:24;;;;;;;15.80;11.70;;;11.60;81.70;;;;;;5000769;28;20811;-54
2020/12/17 02:06:49;;;;;;;14.90;11.07;;;11.60;81.40;;;;;;4999461;28;20096;-56
2020/12/17 02:09:16;;;;;;;16.00;11.83;;;11.60;82.00;;;;;;5000202;28;20417;-48
2020/12/17 02:11:51;;;;;;;13.68;11.00;;;11.60;81.50;;;;;;4996598;28;20040;-58
2020/12/17 02:14:36;;;;;;;17.20;12.50;;;11.60;82.10;;;;;;4999513;28;20042;-51
2020/12/17 02:17:02;;;;;;;13.68;11.00;;;11.60;82.00;;;;;;5002200;28;20088;-51
2020/12/17 02:19:28;;;;;;;14.93;11.97;;;11.60;82.10;;;;;;4999977;28;20117;-50
2020/12/17 02:21:55;;;;;;;15.95;11.80;;;11.60;81.90;;;;;;5000981;28;20045;-51
2020/12/17 02:24:40;;;;;;;14.43;10.88;;;11.60;82.40;;;;;;5000133;28;20108;-51
2020/12/17 02:27:06;;;;;;;14.83;11.40;;;11.60;82.20;;;;;;5002469;28;20152;-48
2020/12/17 02:29:31;;;;;;;16.33;11.67;;;11.60;82.20;;;;;;4998800;28;20034;-51
2020/12/17 02:31:57;;;;;;;16.70;11.97;;;11.60;82.20;;;;;;4997888;28;20123;-56
2020/12/17 02:34:23;;;;;;;15.47;11.67;;;11.60;82.60;;;;;;5000703;28;20042;-50
2020/12/17 02:36:48;;;;;;;13.27;10.53;;;11.60;82.40;;;;;;5000095;28;20034;-50
2020/12/17 02:39:14;;;;;;;15.33;11.47;;;11.60;82.30;;;;;;4999563;28;20160;-48
2020/12/17 02:41:40;;;;;;;14.70;10.88;;;11.50;82.20;;;;;;5000572;28;20041;-50
2020/12/17 02:44:05;;;;;;;15.77;11.73;;;11.50;82.10;;;;;;5002568;28;20057;-52
2020/12/17 02:46:31;;;;;;;14.27;11.63;;;11.50;82.60;;;;;;4985059;28;20050;-55
2020/12/17 02:48:57;;;;;;;16.38;11.00;;;11.50;82.50;;;;;;4999142;28;20124;-51
2020/12/17 02:51:22;;;;;;;14.93;11.88;;;11.50;82.50;;;;;;5001906;28;20042;-51
2020/12/17 02:53:48;;;;;;;14.68;11.65;;;11.50;82.70;;;;;;5001981;28;20034;-56
2020/12/17 02:56:14;;;;;;;15.30;11.47;;;11.50;82.80;;;;;;5018775;28;20546;-55
2020/12/17 02:59:00;;;;;;;17.50;12.27;;;11.50;82.90;;;;;;4987981;28;20836;-56
2020/12/17 03:01:27;;;;;;;20.07;12.30;;;11.50;82.80;;;;;;5000176;28;20042;-53
2020/12/17 03:03:53;;;;;;;17.83;12.38;;;11.40;82.50;;;;;;4998493;28;20037;-53
2020/12/17 03:06:18;;;;;;;16.60;12.45;;;11.40;83.00;;;;;;4999247;28;20037;-46
2020/12/17 03:08:44;;;;;;;16.60;12.57;;;11.40;82.90;;;;;;4999866;28;20033;-52
2020/12/17 03:11:10;;;;;;;16.23;12.50;;;11.40;83.20;;;;;;5000902;28;20065;-50
2020/12/17 03:13:35;;;;;;;14.00;11.93;;;11.40;83.10;;;;;;5000138;28;20599;-51
2020/12/17 03:16:21;;;;;;;16.20;12.30;;;11.30;83.30;;;;;;5000016;28;20097;-56
2020/12/17 03:19:06;;;;;;;15.00;12.37;;;11.40;83.80;;;;;;5001611;28;20061;-52
2020/12/17 03:21:52;;;;;;;15.13;12.50;;;11.40;83.10;;;;;;5001781;28;20602;-50
2020/12/17 03:24:18;;;;;;;15.23;12.50;;;11.40;83.10;;;;;;5002218;28;20049;-50
2020/12/17 03:26:44;;;;;;;14.75;12.70;;;11.40;83.10;;;;;;5001913;28;20038;-54
2020/12/17 03:29:10;;;;;;;16.13;13.23;;;11.40;83.40;;;;;;5001512;28;20082;-52
2020/12/17 03:31:35;;;;;;;15.57;12.60;;;11.30;83.40;;;;;;4997822;28;20050;-53
2020/12/17 03:34:01;;;;;;;18.70;13.63;;;11.40;83.50;;;;;;4999283;28;20046;-54
2020/12/17 03:36:27;;;;;;;17.57;13.10;;;11.30;83.30;;;;;;5000423;28;20532;-53
2020/12/17 03:39:12;;;;;;;18.87;12.97;;;11.30;84.20;;;;;;4997213;28;20463;-48
2020/12/17 03:41:58;;;;;;;18.87;14.33;;;11.20;83.60;;;;;;5000022;28;20056;-49
2020/12/17 03:44:24;;;;;;;18.23;13.67;;;11.20;83.60;;;;;;4998629;28;20707;-48
2020/12/17 03:46:49;;;;;;;15.80;12.73;;;11.30;83.70;;;;;;5001295;28;20064;-47
2020/12/17 03:49:15;;;;;;;18.73;12.90;;;11.20;83.70;;;;;;5000853;28;20046;-53
2020/12/17 03:52:01;;;;;;;18.53;13.47;;;11.30;83.60;;;;;;4999096;28;20541;-49
2020/12/17 03:54:46;;;;;;;16.80;13.43;;;11.30;83.80;;;;;;4998461;28;20046;-52
2020/12/17 03:57:12;;;;;;;17.47;13.53;;;11.40;83.60;;;;;;4999227;28;20045;-49
2020/12/17 03:59:58;;;;;;;19.67;13.97;;;11.20;83.60;;;;;;4984499;28;20052;-49
2020/12/17 04:02:23;;;;;;;17.47;14.27;;;11.30;83.70;;;;;;4999720;28;20498;-50
2020/12/17 04:05:09;;;;;;;23.53;14.97;;;11.30;83.70;;;;;;4984063;28;20050;-47
2020/12/17 04:07:35;;;;;;;17.37;13.37;;;11.30;84.50;;;;;;4998949;28;20046;-50
2020/12/17 04:10:20;;;;;;;18.03;14.40;;;11.30;84.10;;;;;;4997527;28;20053;-49
2020/12/17 04:12:46;;;;;;;18.20;13.90;;;11.20;83.80;;;;;;5001048;28;20041;-50
2020/12/17 04:15:32;;;;;;;15.50;13.50;;;11.20;83.80;;;;;;4997810;28;20042;-53
2020/12/17 04:17:57;;;;;;;17.17;14.87;;;11.20;83.80;;;;;;4998906;28;20044;-53
2020/12/17 04:20:23;;;;;;;17.37;13.20;;;11.20;84.00;;;;;;4999687;28;20045;-48
2020/12/17 04:22:49;;;;;;;15.67;13.67;;;11.20;84.10;;;;;;4999830;28;20042;-53
2020/12/17 04:25:15;;;;;;;18.30;13.87;;;11.20;84.20;;;;;;5000249;28;20046;-51
2020/12/17 04:28:01;;;;;;;17.07;13.60;;;11.20;84.60;;;;;;4997178;28;20052;-51
2020/12/17 04:30:46;;;;;;;19.20;14.33;;;11.20;84.70;;;;;;4998196;28;20069;-51
2020/12/17 04:33:12;;;;;;;16.77;14.00;;;11.20;84.80;;;;;;4999234;28;20034;-56
2020/12/17 04:35:38;;;;;;;18.00;12.97;;;11.20;84.70;;;;;;4999463;28;20180;-56
2020/12/17 04:38:03;;;;;;;19.33;13.90;;;11.20;84.50;;;;;;4998684;28;20450;-57
2020/12/17 04:40:29;;;;;;;16.83;13.83;;;11.10;84.80;;;;;;4998551;28;20038;-54
2020/12/17 04:43:15;;;;;;;16.13;13.57;;;11.20;84.70;;;;;;5013013;28;20458;-56
2020/12/17 04:46:03;;;;;;;19.50;13.80;;;11.10;84.60;;;;;;4988452;28;20159;-51
2020/12/17 04:48:28;;;;;;;19.23;14.37;;;11.20;85.00;;;;;;5000741;28;20133;-54
2020/12/17 04:50:54;;;;;;;21.87;14.03;;;11.10;84.80;;;;;;5004110;28;20127;-50
2020/12/17 04:53:43;;;;;;;16.97;13.83;;;11.20;85.10;;;;;;5002913;28;21098;-54
2020/12/17 04:56:10;;;;;;;16.60;13.67;;;11.20;85.30;;;;;;5006465;28;20524;-51
2020/12/17 04:58:35;;;;;;;17.60;14.20;;;11.20;85.30;;;;;;5004744;28;20056;-50
2020/12/17 05:01:01;;;;;;;19.87;13.77;;;11.20;85.20;;;;;;5002491;28;20037;-53
2020/12/17 05:03:48;;;;;;;16.30;13.67;;;11.10;85.10;;;;;;4990639;28;20038;-53
2020/12/17 05:06:22;;;;;;;20.00;14.37;;;11.20;85.30;;;;;;5004683;28;20034;-52
2020/12/17 05:09:08;;;;;;;15.37;13.10;;;11.10;85.50;;;;;;5003590;28;20045;-52
2020/12/17 05:11:34;;;;;;;19.07;14.40;;;11.10;85.70;;;;;;5003253;28;20458;-53
2020/12/17 05:14:00;;;;;;;19.80;15.10;;;11.10;85.70;;;;;;5002809;28;20062;-54
2020/12/17 05:16:25;;;;;;;17.47;14.57;;;11.10;85.60;;;;;;5003732;28;20050;-51
2020/12/17 05:18:51;;;;;;;18.87;13.87;;;11.10;85.60;;;;;;5004160;28;20048;-55
2020/12/17 05:21:17;;;;;;;18.87;13.83;;;11.10;85.90;;;;;;5004807;28;20386;-54
2020/12/17 05:24:02;;;;;;;15.87;12.97;;;11.20;85.70;;;;;;5001660;28;20142;-49
2020/12/17 05:26:29;;;;;;;19.53;14.67;;;11.20;85.80;;;;;;5003136;28;20053;-51
2020/12/17 05:28:55;;;;;;;17.57;14.13;;;11.10;85.90;;;;;;5001465;28;20081;-53
2020/12/17 05:31:21;;;;;;;18.37;13.80;;;11.10;86.00;;;;;;5003029;28;20042;-51
2020/12/17 05:33:46;;;;;;;19.80;14.13;;;11.10;86.00;;;;;;5003927;28;20041;-54
2020/12/17 05:36:19;;;;;;;20.50;15.57;;;11.10;85.80;;;;;;5003329;28;20367;-54
2020/12/17 05:38:45;;;;;;;18.70;14.20;;;11.20;86.00;;;;;;5001778;28;20045;-51
2020/12/17 05:41:31;;;;;;;16.87;13.23;;;11.10;86.20;;;;;;4999984;28;20057;-51
2020/12/17 05:44:19;;;;;;;19.87;15.07;;;11.20;86.30;;;;;;5002010;28;20052;-56
2020/12/17 05:46:46;;;;;;;19.57;14.40;;;11.10;86.30;;;;;;5002839;28;20074;-54
2020/12/17 05:49:19;;;;;;;19.33;13.67;;;11.10;86.70;;;;;;5001913;28;20374;-54
2020/12/17 05:52:10;;;;;;;20.20;14.82;;;11.10;86.90;;;;;;5002805;28;20501;-55
2020/12/17 05:54:56;;;;;;;21.33;14.80;;;11.10;86.80;;;;;;5001711;28;20048;-55
2020/12/17 05:57:22;;;;;;;20.20;14.63;;;11.10;87.00;;;;;;5001582;28;20050;-50
2020/12/17 05:59:57;;;;;;;16.97;14.27;;;11.10;86.80;;;;;;5000741;28;20081;-56
2020/12/17 06:02:29;;;;;;;18.97;14.30;;;11.10;86.80;;;;;;5000568;28;20425;-53
2020/12/17 06:05:16;;;;;;;17.30;14.77;;;11.10;86.90;;;;;;5001665;28;20042;-50
2020/12/17 06:07:47;;;;;;;21.33;15.30;;;11.10;86.90;;;;;;5004164;28;20184;-57
2020/12/17 06:10:29;;;;;;;20.03;14.67;;;11.10;87.20;;;;;;5003310;28;20088;-55
2020/12/17 06:12:57;;;;;;;15.17;13.57;;;11.20;87.00;;;;;;5002900;28;20038;-58
2020/12/17 06:15:45;;;;;;;18.33;15.70;;;11.10;87.20;;;;;;4986234;28;20185;-51
2020/12/17 06:18:12;;;;;;;28.77;14.93;;;11.10;87.00;;;;;;5000817;28;20059;-53
2020/12/17 06:20:57;;;;;;;19.40;15.17;;;11.10;87.60;;;;;;5003658;28;20057;-52
2020/12/17 06:23:23;;;;;;;18.53;13.57;;;11.20;87.10;;;;;;5001402;28;20425;-50
2020/12/17 06:25:49;;;;;;;17.63;14.17;;;11.20;87.00;;;;;;5000173;28;20042;-54
2020/12/17 06:28:37;;;;;;;17.27;13.87;;;11.20;87.00;;;;;;5001710;28;20041;-55
2020/12/17 06:31:03;;;;;;;17.07;14.10;;;11.20;87.30;;;;;;5001304;28;20036;-56
2020/12/17 06:33:29;;;;;;;17.42;14.30;;;11.20;87.20;;;;;;5000207;28;20410;-57
2020/12/17 06:35:58;;;;;;;19.70;16.07;;;11.20;87.30;;;;;;5002371;28;20038;-52
2020/12/17 06:38:43;;;;;;;18.90;14.73;;;11.20;87.20;;;;;;4992539;28;20081;-56
2020/12/17 06:41:29;;;;;;;21.20;13.90;;;11.20;87.20;;;;;;4985635;28;20037;-53
2020/12/17 06:43:55;;;;;;;17.00;13.67;;;11.20;87.30;;;;;;5003166;28;20091;-56
2020/12/17 06:46:40;;;;;;;17.83;14.60;;;11.20;88.00;;;;;;5000905;28;20148;-53
2020/12/17 06:49:07;;;;;;;16.87;13.90;;;11.20;88.30;;;;;;5003079;28;20069;-52
2020/12/17 06:52:09;;;;;;;15.87;13.10;;;11.20;87.40;;;;;;5002202;28;20041;-53
2020/12/17 06:54:38;;;;;;;18.55;12.82;;;11.20;87.40;;;;;;5001915;28;20791;-50
2020/12/17 06:57:24;;;;;;;14.70;12.52;;;11.20;87.00;;;;;;5016394;28;20124;-52
2020/12/17 07:00:07;;;;;;;13.27;11.53;;;11.30;86.80;;;;;;5001857;28;20073;-54
2020/12/17 07:02:39;;;;;;;14.17;11.50;;;11.30;86.20;;;;;;5002209;28;20042;-53
2020/12/17 07:05:32;;;;;;;12.47;11.17;;;11.30;86.40;;;;;;5004046;28;20034;-56
2020/12/17 07:07:58;;;;;;;12.43;10.88;;;11.30;86.70;;;;;;5002210;28;20050;-54
2020/12/17 07:10:28;;;;;;;13.27;11.57;;;11.30;86.50;;;;;;5016721;28;20159;-56
2020/12/17 07:13:37;;;;;;;14.17;11.83;;;11.30;87.00;;;;;;5000077;28;20057;-54
2020/12/17 07:16:03;;;;;;;13.73;11.00;;;11.30;86.80;;;;;;4986061;28;20246;-53
2020/12/17 07:18:28;;;;;;;14.40;10.50;;;11.30;86.70;;;;;;5000352;28;20526;-58
2020/12/17 07:21:14;;;;;;;18.57;11.60;;;11.30;87.60;;;;;;4999612;28;20171;-54
2020/12/17 07:23:41;;;;;;;11.00;9.87;;;11.40;86.30;;;;;;5004143;28;20034;-58
2020/12/17 07:26:13;;;;;;;11.80;10.33;;;11.20;86.90;;;;;;5003989;28;20042;-56
2020/12/17 07:28:39;;;;;;;11.18;9.13;;;11.20;87.50;;;;;;5002246;28;20037;-55
2020/12/17 07:31:05;;;;;;;12.57;10.87;;;11.20;86.70;;;;;;5001713;28;20052;-56
2020/12/17 07:33:37;;;;;;;12.02;9.70;;;11.20;87.10;;;;;;5000890;28;20045;-56
2020/12/17 07:36:06;;;;;;;10.77;9.07;;;11.20;87.00;;;;;;5000022;28;20045;-54
2020/12/17 07:38:32;;;;;;;13.30;9.43;;;11.20;86.40;;;;;;5001247;28;20060;-56
2020/12/17 07:40:58;;;;;;;10.83;9.50;;;11.30;86.10;;;;;;4968564;28;20042;-53
2020/12/17 07:43:44;;;;;;;10.60;9.23;;;11.30;86.50;;;;;;4987885;28;21611;-54
2020/12/17 07:46:09;;;;;;;9.03;8.13;;;11.20;86.50;;;;;;5002918;28;20117;-56
2020/12/17 07:48:49;;;;;;;10.60;9.00;;;11.20;86.00;;;;;;5000091;28;20062;-50
2020/12/17 07:51:15;;;;;;;10.48;8.48;;;11.20;86.20;;;;;;4999586;28;20049;-53
2020/12/17 07:53:41;;;;;;;9.77;8.60;;;11.20;85.70;;;;;;5000411;28;20046;-51
2020/12/17 07:56:07;;;;;;;12.95;9.10;;;11.30;85.60;;;;;;5002270;28;20050;-52
2020/12/17 07:58:36;;;;;;;9.80;7.80;;;11.30;86.20;;;;;;5001189;28;20095;-52
2020/12/17 08:01:03;;;;;;;10.23;8.35;;;11.30;85.70;;;;;;5015819;28;20117;-53
2020/12/17 08:03:28;;;;;;;10.77;8.93;;;11.30;85.20;;;;;;5001492;28;20115;-48
2020/12/17 08:06:05;;;;;;;9.88;8.73;;;11.30;86.10;;;;;;5000410;28;20489;-54
2020/12/17 08:08:30;;;;;;;11.18;8.55;;;11.20;85.30;;;;;;4996572;28;20070;-49
2020/12/17 08:10:56;;;;;;;10.30;8.23;;;11.20;85.10;;;;;;4998643;28;20124;-53
2020/12/17 08:13:22;;;;;;;11.15;7.47;;;11.80;84.90;;;;;;4999709;28;20468;-53
2020/12/17 08:16:00;;;;;;;10.07;8.07;;;11.70;83.30;;;;;;4997320;28;20702;-57
2020/12/17 08:18:30;;;;;;;6.03;3.60;;;11.60;83.90;;;;;;5005578;28;20046;-63
2020/12/17 08:21:11;;;;;;;11.80;5.38;;;12.30;91.60;;;;;;5003862;28;20049;-63
2020/12/17 08:23:57;;;;;;;10.57;3.85;;;13.30;91.20;;;;;;4996457;28;20042;-63
2020/12/17 08:26:27;;;;;;;9.10;4.13;;;14.00;89.80;;;;;;5005908;28;20431;-64
2020/12/17 08:29:14;;;;;;;3.40;2.05;;;14.40;86.70;;;;;;4987594;28;20411;-64
2020/12/17 08:31:39;;;;;;;3.28;2.58;;;15.00;85.50;;;;;;4984649;28;20049;-63
2020/12/17 08:34:05;;;;;;;7.13;3.70;;;15.50;83.20;;;;;;5003100;28;20061;-63
2020/12/17 08:36:51;;;;;;;3.63;2.63;;;15.70;80.10;;;;;;5002297;28;21634;-58
2020/12/17 08:39:18;;;;;;;3.17;2.70;;;16.10;79.30;;;;;;5001043;28;20034;-62
2020/12/17 08:41:47;;;;;;;4.13;2.35;;;16.40;77.60;;;;;;5002571;28;20087;-62
2020/12/17 08:44:35;;;;;;;5.15;2.97;;;16.60;76.70;;;;;;5002446;28;20519;-64
2020/12/17 08:47:05;;;;;;;2.25;1.77;;;16.70;74.50;;;;;;5000060;28;20053;-62
2020/12/17 08:49:31;;;;;;;2.25;1.42;;;16.90;75.10;;;;;;5000974;28;20053;-63
2020/12/17 08:51:57;;;;;;;2.33;1.42;;;17.10;74.40;;;;;;5003492;28;20045;-63
2020/12/17 08:54:32;;;;;;;5.65;1.85;;;17.30;73.40;;;;;;5002712;28;20045;-63
2020/12/17 08:57:19;;;;;;;2.05;1.40;;;17.50;72.10;;;;;;5003907;28;20041;-64
2020/12/17 08:59:51;;;;;;;1.60;1.38;;;17.70;71.70;;;;;;5004876;28;20049;-63
2020/12/17 09:02:22;;;;;;;3.72;1.40;;;17.80;71.10;;;;;;5002438;28;20038;-64
2020/12/17 09:05:01;;;;;;;3.78;1.65;;;18.00;70.70;;;;;;5006425;28;20053;-64
2020/12/17 09:07:51;;;;;;;3.22;1.40;;;18.10;70.10;;;;;;4990938;28;20046;-63
2020/12/17 09:10:17;;;;;;;1.48;1.38;;;18.20;69.50;;;;;;5017849;28;20109;-64
2020/12/17 09:12:47;;;;;;;4.57;2.45;;;18.20;69.20;;;;;;5002846;28;20141;-62
2020/12/17 09:15:33;;;;;;;3.53;1.70;;;18.30;68.40;;;;;;4986869;28;20052;-63
2020/12/17 09:18:08;;;;;;;4.90;1.80;;;18.50;68.40;;;;;;5000466;28;20042;-62
2020/12/17 09:20:34;;;;;;;1.83;1.10;;;18.60;68.00;;;;;;5001758;28;20049;-62
2020/12/17 09:23:10;;;;;;;5.20;2.05;;;18.70;67.60;;;;;;4998828;28;20076;-61
2020/12/17 09:25:55;;;;;;;3.50;1.90;;;18.80;66.40;;;;;;5002248;28;20046;-63
2020/12/17 09:28:58;;;;;;;3.15;1.70;;;18.90;66.60;;;;;;5002690;28;20097;-64
2020/12/17 09:31:27;;;;;;;19.13;6.80;;;18.90;66.30;;;;;;5003025;28;20042;-60
2020/12/17 09:34:06;;;;;;;6.80;2.92;;;19.00;63.20;;;;;;5000515;28;20038;-63
2020/12/17 09:36:32;;;;;;;10.77;3.50;;;19.10;66.00;;;;;;5012181;28;20045;-62
2020/12/17 09:39:04;;;;;;;7.93;2.53;;;19.10;64.80;;;;;;5000813;28;20046;-62
2020/12/17 09:41:30;;;;;;;8.45;2.65;;;19.10;65.30;;;;;;4998355;28;20045;-63
2020/12/17 09:43:56;;;;;;;9.30;1.70;;;19.20;63.50;;;;;;4999895;28;20073;-62
2020/12/17 09:46:22;;;;;;;32.75;6.20;;;19.30;64.60;;;;;;5000217;28;20053;-63
2020/12/17 09:49:08;;;;;;;12.13;5.22;;;19.30;62.90;;;;;;4989427;28;20049;-63
2020/12/17 09:51:34;;;;;;;7.60;2.95;;;19.40;62.10;;;;;;5005804;28;20420;-63
2020/12/17 09:54:00;;;;;;;3.08;2.10;;;19.40;63.10;;;;;;4998519;28;20095;-63
2020/12/17 09:57:09;;;;;;;29.30;6.35;;;19.40;62.60;;;;;;4999245;28;20136;-64
2020/12/17 09:59:34;;;;;;;6.95;2.00;;;19.50;61.90;;;;;;5001950;28;20471;-63
2020/12/17 10:02:01;;;;;;;2.53;1.83;;;19.60;61.60;;;;;;5000582;28;20052;-62
2020/12/17 10:04:27;;;;;;;3.92;1.92;;;19.70;61.20;;;;;;5001393;28;20041;-63
2020/12/17 10:06:53;;;;;;;5.20;2.40;;;19.70;60.60;;;;;;5005024;28;20450;-64
2020/12/17 10:09:39;;;;;;;3.53;2.60;;;19.80;59.70;;;;;;5003327;28;20064;-61
2020/12/17 10:12:24;;;;;;;6.38;2.17;;;19.80;59.50;;;;;;5002338;28;20129;-62
2020/12/17 10:14:50;;;;;;;14.63;2.80;;;19.90;59.70;;;;;;4999010;28;20034;-58
2020/12/17 10:17:16;;;;;;;5.38;3.88;;;19.90;58.70;;;;;;4997082;28;20627;-60
2020/12/17 10:20:04;;;;;;;5.60;2.30;;;20.00;57.90;;;;;;4980520;28;20568;-59
2020/12/17 10:22:30;;;;;;;6.07;2.60;;;19.90;58.80;;;;;;5000786;28;20035;-60
2020/12/17 10:24:55;;;;;;;6.50;3.13;;;20.00;59.70;;;;;;4998406;28;20049;-60
2020/12/17 10:27:21;;;;;;;5.22;2.58;;;20.00;58.90;;;;;;4993816;28;20128;-61
2020/12/17 10:29:47;;;;;;;9.57;2.95;;;20.00;59.20;;;;;;4999820;28;20662;-58
2020/12/17 10:32:14;;;;;;;5.60;3.40;;;20.00;58.90;;;;;;4993495;28;20061;-61
2020/12/17 10:34:40;;;;;;;29.02;10.60;;;20.00;59.30;;;;;;4996343;28;20034;-59
2020/12/17 10:37:07;;;;;;;35.42;18.02;;;19.90;61.70;;;;;;4998065;28;20167;-58
2020/12/17 10:39:32;;;;;;;40.70;23.92;;;20.00;62.00;;;;;;4992831;28;20121;-60
2020/12/17 10:42:18;;;;;;;38.65;21.10;;;20.00;62.60;;;;;;4995330;28;20053;-59
2020/12/17 10:44:44;;;;;;;29.17;16.10;;;20.10;62.40;;;;;;4993265;28;20045;-59
2020/12/17 10:47:09;;;;;;;31.63;13.73;;;20.10;61.30;;;;;;4997186;28;20180;-54
2020/12/17 10:49:35;;;;;;;24.48;12.48;;;20.20;60.10;;;;;;4998584;28;20045;-59
2020/12/17 10:52:21;;;;;;;20.10;9.93;;;20.20;59.70;;;;;;4979952;28;20046;-59
2020/12/17 10:54:47;;;;;;;17.73;7.57;;;20.20;59.50;;;;;;4996315;28;20092;-58
2020/12/17 10:57:13;;;;;;;12.60;7.45;;;20.10;59.00;;;;;;4997060;28;20038;-60
2020/12/17 10:59:39;;;;;;;11.88;6.65;;;20.20;59.40;;;;;;4993029;28;20749;-61
2020/12/17 11:02:04;;;;;;;8.70;6.18;;;20.30;58.70;;;;;;4990622;28;20042;-60
2020/12/17 11:04:30;;;;;;;11.18;5.57;;;20.40;59.10;;;;;;4997354;28;20554;-57
2020/12/17 11:06:59;;;;;;;8.30;4.75;;;20.30;58.20;;;;;;4996708;28;20125;-60
2020/12/17 11:09:24;;;;;;;9.88;5.78;;;20.30;58.30;;;;;;4999374;28;20038;-60
2020/12/17 11:12:11;;;;;;;7.10;5.38;;;20.30;57.70;;;;;;4992128;28;20045;-58
2020/12/17 11:14:56;;;;;;;8.35;4.93;;;20.40;57.70;;;;;;4996811;28;20041;-60
2020/12/17 11:17:22;;;;;;;12.25;4.43;;;20.40;57.70;;;;;;4995903;28;20095;-60
2020/12/17 11:19:48;;;;;;;8.52;5.32;;;20.40;57.60;;;;;;4995771;28;20038;-56
2020/12/17 11:22:13;;;;;;;12.02;5.50;;;20.40;56.30;;;;;;4997039;28;20037;-59
2020/12/17 11:24:59;;;;;;;11.18;6.30;;;20.40;56.10;;;;;;4996948;28;20041;-60
2020/12/17 11:27:25;;;;;;;7.13;5.43;;;20.30;56.20;;;;;;4989939;28;20038;-54
2020/12/17 11:29:50;;;;;;;7.47;5.60;;;20.10;56.50;;;;;;4998070;28;20037;-56
2020/12/17 11:32:37;;;;;;;8.43;4.60;;;19.90;56.90;;;;;;4995038;28;20049;-54
2020/12/17 11:35:06;;;;;;;10.35;3.85;;;19.90;58.50;;;;;;4992935;28;20038;-58
2020/12/17 11:37:51;;;;;;;9.27;3.10;;;20.00;58.30;;;;;;4982336;28;20442;-58
2020/12/17 11:40:18;;;;;;;5.07;3.05;;;20.00;58.30;;;;;;4997894;28;20042;-56
2020/12/17 11:42:44;;;;;;;6.55;3.22;;;20.10;58.10;;;;;;4998015;28;20037;-54
2020/12/17 11:45:10;;;;;;;7.63;2.95;;;20.10;58.10;;;;;;4996917;28;20056;-53
2020/12/17 11:47:36;;;;;;;4.55;2.95;;;20.20;58.30;;;;;;4998062;28;20536;-55
2020/12/17 11:50:02;;;;;;;5.97;2.50;;;20.20;59.50;;;;;;4998069;28;20042;-55
2020/12/17 11:52:28;;;;;;;10.20;3.78;;;20.30;58.50;;;;;;4993218;28;20038;-55
2020/12/17 11:54:54;;;;;;;4.20;3.03;;;20.40;57.90;;;;;;4976448;28;20046;-54
2020/12/17 11:57:19;;;;;;;4.05;2.75;;;20.30;58.30;;;;;;4986904;28;20409;-58
2020/12/17 11:59:45;;;;;;;3.88;2.83;;;20.30;58.40;;;;;;4982348;28;20132;-52
2020/12/17 12:02:31;;;;;;;8.35;3.70;;;20.30;58.30;;;;;;4984123;28;20038;-53
2020/12/17 12:04:56;;;;;;;6.15;5.43;;;20.40;58.80;;;;;;4982204;28;20060;-60
2020/12/17 12:07:23;;;;;;;8.38;6.18;;;20.00;52.80;;;;;;4992332;28;20083;-56
2020/12/17 12:09:49;;;;;;;7.25;6.32;;;18.70;56.00;;;;;;4992148;28;20046;-56
2020/12/17 12:12:15;;;;;;;8.52;6.32;;;17.90;58.90;;;;;;4991028;28;20048;-59
2020/12/17 12:14:40;;;;;;;9.35;6.43;;;17.40;60.00;;;;;;4985048;28;20034;-59
2020/12/17 12:17:06;;;;;;;8.48;6.68;;;16.90;61.80;;;;;;4987512;28;20052;-57
2020/12/17 12:19:32;;;;;;;12.20;7.72;;;16.50;64.20;;;;;;4991089;28;20038;-61
2020/12/17 12:21:57;;;;;;;12.80;7.05;;;16.10;64.00;;;;;;4989376;28;20057;-59
2020/12/17 12:24:23;;;;;;;9.05;6.88;;;15.90;65.10;;;;;;4987416;28;20778;-60
2020/12/17 12:26:49;;;;;;;14.95;7.35;;;15.60;66.80;;;;;;4988745;28;20454;-61
2020/12/17 12:29:34;;;;;;;12.52;6.72;;;15.40;66.50;;;;;;4990025;28;20139;-59
2020/12/17 12:32:00;;;;;;;10.55;6.78;;;15.20;68.20;;;;;;4989070;28;20084;-59
2020/12/17 12:34:26;;;;;;;11.27;7.30;;;15.10;67.60;;;;;;4986749;28;20161;-59
2020/12/17 12:36:53;;;;;;;10.20;6.90;;;15.00;67.40;;;;;;4986956;28;20034;-59
2020/12/17 12:39:20;;;;;;;12.65;6.50;;;14.80;68.70;;;;;;4987670;28;20133;-59
2020/12/17 12:42:07;;;;;;;14.05;6.93;;;14.80;69.10;;;;;;4988807;28;20177;-62
2020/12/17 12:44:33;;;;;;;11.50;5.78;;;14.60;69.50;;;;;;4985639;28;20445;-57
2020/12/17 12:46:58;;;;;;;10.32;6.28;;;14.60;69.50;;;;;;4986962;28;20115;-58
2020/12/17 12:49:24;;;;;;;14.18;5.60;;;14.60;69.20;;;;;;4987999;28;20050;-58
2020/12/17 12:52:10;;;;;;;11.88;6.60;;;14.60;72.30;;;;;;4983894;28;20395;-50
2020/12/17 12:54:35;;;;;;;12.90;4.50;;;14.80;68.70;;;;;;4983537;28;20057;-59
2020/12/17 12:57:03;;;;;;;15.40;5.88;;;15.40;69.90;;;;;;4984698;28;20041;-58
2020/12/17 12:59:49;;;;;;;11.02;3.92;;;15.70;66.90;;;;;;4983706;28;20144;-58
2020/12/17 13:02:15;;;;;;;8.13;3.50;;;16.10;69.20;;;;;;4987094;28;20107;-56